Aeroporto :
LOGIN :

Iscrizione | Disclaimer

   EN    FR    IT 

 










Sommario :    VFR   VFR Marginale   IFR   IFR Intensivo   IFR Molto Intensivo
Visibilità : 
Base nubi : 
>= 8 km
>= 3000ft
5 / 8 km
1000 / 3000 ft
1500m / 5 km
500 / 1000 ft
800 / 1500m
200 / 500 ft
< 800m
< 200 ft
Simboli :   Temporali  Nebbia  Neve Forte  Precipitazioni Forti  Vento > 20 kt
SIGMETs :   Varie  Temporali  Ghiacco  Turbolenza  Onda orograficha  Ceneri Vulcaniche






- Altitudine del aeroporto : 1260 ft
- Codice IATA : LDE


LFBT - Tarbes / Ossun

ULTIMO METAR :
  • 280030Z AUTO 25006KT 9999 FEW010 BKN022 BKN030 10/09 Q1022 BECMG OVC007

METARs OBSOLETI :
  • 280000Z AUTO 26007KT 9999 BKN009 OVC048 10/09 Q1022 NOSIG
  • 272330Z AUTO 23007KT 200V260 7000 -RA BKN007 BKN014 BKN036 10/09 Q1021 NOSIG
  • 272300Z AUTO 26009KT 9999 BKN008/// BKN012/// BKN018/// ///TCU 10/09 Q1022 BECMG BKN012
  • 272230Z AUTO 25007KT 7000 DZ BKN008/// OVC017/// ///TCU 10/10 Q1022 BECMG NSW BKN012
  • 272200Z AUTO 25007KT 9000 -DZ OVC007/// ///TCU 10/10 Q1022 TEMPO 2500 RA BECMG BKN012

TAF TAF LFBT
Valido dal 28 a 00 ore il 29 a 00 ore UTC


272300Z 2800/2824 26007KT 8000 -RA OVC007
BECMG 2805/2807 9999 NSW BKN012
BECMG 2809/2811 VRB02KT CAVOK



MetMap, La meteo Aeronautica in un colpo d'occhio ! - Copyright ORBIFLY Dicembre 2007 - Disclaimer

ORBIFLY MET'MAP TEAM :

Programmazione e sviluppo : Alexandra Zaïnal
Concezione : Baudouin d'Aumeries
Aiuto per la programmazione : Marc-Olivier Méhu
Supporto tecnico e logistico : Manuel Goepfert
Aiuto per la traduzione : Arnaldo La Scala

Contatto : metmap@orbifly.com




FONTI E CREDITI :

   NOAA